G3 Marquis — XJBO — position and weather

sailwx.info

Track history (hours):
 
Tides and Currents Weather Stations Pressure Air Temp Water Temp Dewpoint Dewpoint Depression Visibility Wind Speed Wind Dir Waves Ship Positions

G3 Marquis

Last reported at 2018-Jan-04 21:00 UTC. Time now 2018-Feb-23 03:16 UTC.
Position N 48°30' W 089°06'.
Warning: this ship's position is 49 days out of date.

Length 226 m; draft 7.9 m.

Type: Cargo ship. MMSI: 316004370.

Wind from 310 at 11 knots

Air temperature -19.0 ° C
Visibility: greater than 10.8 NM

Date/timePositionNaut miles runAvg speedWind from/ knotsBaromVisibWave heightAir tempDewpointWater temp
2018-Jan-04 21:00N 48°30' W 089°06'132 7.3 310 / 11 10.8 -19.0
2018-Jan-04 03:00N 47°03' W 091°33'510.8
2018-Jan-04 02:30N 47°00' W 091°40'1 1.0
2018-Jan-04 02:00N 47°01' W 091°40'0 0.0
2018-Jan-04 01:30N 47°01' W 091°40'0 0.0
2018-Jan-03 13:32N 47°01' W 091°40'0 0.2
2018-Jan-03 13:30N 47°01' W 091°40'0 0.4
2018-Jan-03 13:01N 47°01' W 091°40'1 2.3
2018-Jan-03 12:31N 46°60' W 091°41'2 3.1
2018-Jan-03 12:00N 46°58' W 091°42'1 1.2
2018-Jan-03 11:31N 46°59' W 091°42'3 6.6
2018-Jan-03 11:01N 46°56' W 091°45'5 9.7
2018-Jan-03 10:30N 46°52' W 091°50'5 9.7
2018-Jan-03 10:00N 46°49' W 091°55'4 8.2
2018-Jan-03 09:31N 46°46' W 091°59'0 0.1
2018-Jan-03 08:58N 46°46' W 091°59'0 0.0
2018-Jan-03 08:28N 46°46' W 091°59'2 4.7
2018-Jan-03 08:00N 46°48' W 092°00'228.7 340 / 171017.010.8 -18.0
2018-Jan-03 07:55N 46°46' W 091°59'0 0.1
2018-Jan-03 07:28N 46°46' W 091°59'0 0.0
2018-Jan-03 06:52N 46°46' W 091°59'0 0.1
2018-Jan-03 06:25N 46°46' W 091°59'0 0.1
2018-Jan-03 05:58N 46°46' W 091°59'0 0.1
2018-Jan-03 05:28N 46°46' W 091°59'0 0.1
2018-Jan-03 04:58N 46°46' W 091°59'0 0.0
2018-Jan-03 04:28N 46°46' W 091°59'0 0.0
2018-Jan-03 03:58N 46°46' W 091°59'0 0.1
2018-Jan-03 03:28N 46°46' W 091°59'0 0.1
2018-Jan-03 02:58N 46°46' W 091°59'0 0.1
2018-Jan-03 02:28N 46°46' W 091°59'0 0.1
2018-Jan-03 01:58N 46°46' W 091°59'0 0.1
2018-Jan-03 01:28N 46°46' W 091°59'2 4.6
2018-Jan-03 01:00N 46°48' W 092°00'278.7 270 / 121011.0 5.4 -12.0
2018-Jan-03 00:58N 46°46' W 091°59'0 0.2
2018-Jan-03 00:28N 46°46' W 091°59'0 0.1
2018-Jan-02 23:58N 46°46' W 091°59'0 0.0
2018-Jan-02 23:28N 46°46' W 091°59'0 0.0
2018-Jan-02 22:52N 46°46' W 091°59'0 0.1
2018-Jan-02 22:22N 46°46' W 091°59'0 0.1
2018-Jan-02 21:58N 46°46' W 091°59'0 0.0
2018-Jan-02 21:28N 46°46' W 091°59'0 0.0
2018-Jan-02 20:52N 46°46' W 091°59'0 0.0
2018-Jan-02 20:22N 46°46' W 091°59'0 0.0
2018-Jan-02 19:55N 46°46' W 091°59'0 0.1
2018-Jan-02 19:28N 46°46' W 091°59'0 0.0
2018-Jan-02 18:55N 46°46' W 091°59'0 0.0
2018-Jan-02 18:28N 46°46' W 091°59'0 0.1
2018-Jan-02 17:58N 46°46' W 091°59'0 0.1
2018-Jan-02 17:28N 46°46' W 091°59'0 0.0
2018-Jan-02 16:58N 46°46' W 091°59'0 0.0
2018-Jan-02 16:28N 46°46' W 091°59'1 1.2
2018-Jan-02 16:00N 46°46' W 091°58'4 8.1
2018-Jan-02 15:31N 46°49' W 091°54'510.1
2018-Jan-02 15:01N 46°53' W 091°49'610.2
2018-Jan-02 14:27N 46°57' W 091°44'4 9.4
2018-Jan-02 14:00N 47°00' W 091°40'2 3.3
2018-Jan-02 13:30N 46°59' W 091°42'1 2.5
2018-Jan-02 12:59N 46°58' W 091°43'3 5.9
2018-Jan-02 12:29N 46°56' W 091°45'3 6.3
2018-Jan-02 12:01N 46°54' W 091°48'3 6.4
2018-Jan-02 11:31N 46°51' W 091°51'3 6.5
2018-Jan-02 11:00N 46°49' W 091°54'5636.2
2018-Jan-02 11:00N 46°54' W 091°54'816.2 240 / 301025.010.8 -16.0
2018-Jan-02 10:30N 46°47' W 091°58'2 2.5
2018-Jan-02 09:53N 46°46' W 091°60'0 0.0
2018-Jan-02 09:29N 46°46' W 091°60'0 0.0
2018-Jan-02 08:29N 46°46' W 091°60'0 0.0
2018-Jan-02 07:59N 46°46' W 091°60'0 0.0
2018-Jan-02 07:23N 46°46' W 091°60'0 0.0
2018-Jan-02 06:53N 46°46' W 091°60'0 0.0
2018-Jan-02 06:29N 46°46' W 091°60'0 0.0
2018-Jan-02 05:59N 46°46' W 091°60'0 0.0
2018-Jan-02 05:11N 46°46' W 091°60'0 0.0
2018-Jan-02 04:23N 46°46' W 091°60'0 0.0
2018-Jan-02 03:59N 46°46' W 091°60'0 0.0
2018-Jan-02 03:29N 46°46' W 091°60'0 0.0
2018-Jan-02 02:59N 46°46' W 091°60'0 0.0
2018-Jan-02 02:29N 46°46' W 091°60'0 0.1
2018-Jan-02 01:59N 46°46' W 091°60'0 0.0
2018-Jan-02 01:29N 46°46' W 091°60'0 0.0
2018-Jan-02 00:59N 46°46' W 091°60'0 0.0
2018-Jan-02 00:29N 46°46' W 091°60'0 0.0
2018-Jan-01 23:59N 46°46' W 091°60'0 0.0
2018-Jan-01 23:29N 46°46' W 091°60'0 0.1
2018-Jan-01 22:59N 46°46' W 091°60'0 0.1
2018-Jan-01 22:29N 46°46' W 091°60'0 0.0
2018-Jan-01 21:53N 46°46' W 091°60'0 0.1
2018-Jan-01 21:29N 46°46' W 091°60'2 4.6
2018-Jan-01 21:00N 46°48' W 092°00'220.0 250 / 141034.010.8 -15.0
2018-Jan-01 20:53N 46°46' W 091°60'0 0.1
2018-Jan-01 20:23N 46°46' W 091°60'0 0.0
2018-Jan-01 19:59N 46°46' W 091°60'0 0.1
2018-Jan-01 19:29N 46°46' W 091°60'0 0.1
2018-Jan-01 18:56N 46°46' W 091°60'0 0.1
2018-Jan-01 18:29N 46°46' W 091°60'0 0.0
2018-Jan-01 17:56N 46°46' W 091°60'0 0.1
2018-Jan-01 17:29N 46°46' W 091°60'0 0.0
2018-Jan-01 14:47N 46°46' W 091°60'0 0.1
2018-Jan-01 14:29N 46°46' W 091°60'0 0.0
2018-Jan-01 13:59N 46°46' W 091°60'0 0.0
2018-Jan-01 13:29N 46°46' W 091°60'0 0.1
2018-Jan-01 12:59N 46°46' W 091°60'0 0.0
2018-Jan-01 11:59N 46°46' W 091°60'0 0.0
2018-Jan-01 11:29N 46°46' W 091°60'0 0.0
2018-Jan-01 10:59N 46°46' W 091°60'0 0.0
2018-Jan-01 10:29N 46°46' W 091°60'0 0.0
2018-Jan-01 09:59N 46°46' W 091°60'0 0.1
2018-Jan-01 09:29N 46°46' W 091°60'2 4.7
2018-Jan-01 09:00N 46°48' W 092°00'2 4.5 320 / 121037.010.8 -24.0
2018-Jan-01 08:29N 46°46' W 091°60'0 0.1
2018-Jan-01 07:53N 46°46' W 091°60'0 0.0
2018-Jan-01 07:23N 46°46' W 091°60'0 0.1
2018-Jan-01 06:59N 46°46' W 091°60'0 0.0
2018-Jan-01 05:59N 46°46' W 091°60'0 0.0
2018-Jan-01 05:26N 46°46' W 091°60'0 0.0
2018-Jan-01 04:59N 46°46' W 091°60'0 0.0
2018-Jan-01 03:56N 46°46' W 091°60'0 0.1
2018-Jan-01 03:29N 46°46' W 091°60'0 0.1
2018-Jan-01 02:59N 46°46' W 091°60'0 0.0
2018-Jan-01 02:29N 46°46' W 091°60'0 0.0
2018-Jan-01 01:59N 46°46' W 091°60'0 0.0
2018-Jan-01 01:29N 46°46' W 091°60'0 0.0
2018-Jan-01 00:29N 46°46' W 091°60'2 1.5
2017-Dec-31 23:00N 46°48' W 092°00'2 1.1 270 / 15 10.8 -21.0
2017-Dec-31 20:59N 46°46' W 091°60'0 0.1
2017-Dec-31 20:29N 46°46' W 091°60'0 0.1
2017-Dec-31 19:50N 46°46' W 091°60'0 0.1
2017-Dec-31 19:29N 46°46' W 091°60'0 0.0
2017-Dec-31 18:59N 46°46' W 091°60'0 0.0
2017-Dec-31 18:29N 46°46' W 091°60'0 0.0
2017-Dec-31 17:53N 46°46' W 091°60'0 0.0
2017-Dec-31 17:08N 46°46' W 091°60'0 0.1
2017-Dec-31 16:53N 46°46' W 091°60'0 0.1
2017-Dec-31 16:29N 46°46' W 091°60'0 0.1
2017-Dec-31 15:53N 46°46' W 091°60'0 0.0
2017-Dec-31 15:20N 46°46' W 091°60'0 0.1
2017-Dec-31 14:59N 46°46' W 091°60'0 0.1
2017-Dec-31 14:29N 46°46' W 091°60'0 0.1
2017-Dec-31 13:56N 46°46' W 091°60'0 0.0
2017-Dec-31 13:29N 46°46' W 091°60'0 0.1
2017-Dec-31 12:59N 46°46' W 091°60'0 0.0
2017-Dec-31 12:26N 46°46' W 091°60'0 0.1
2017-Dec-31 11:56N 46°46' W 091°60'0 0.2
2017-Dec-31 11:29N 46°46' W 091°60'0 0.0
2017-Dec-31 10:59N 46°46' W 091°60'0 0.0
2017-Dec-31 10:26N 46°46' W 091°60'0 0.1
2017-Dec-31 09:59N 46°46' W 091°60'0 0.1
2017-Dec-31 09:29N 46°46' W 091°60'0 0.0
2017-Dec-31 08:59N 46°46' W 091°60'0 0.1
2017-Dec-31 08:29N 46°46' W 091°60'2 4.9
2017-Dec-31 08:00N 46°48' W 092°00'221.8 330 / 131035.010.8 -23.0
2017-Dec-31 07:53N 46°46' W 091°60'0 0.1
2017-Dec-31 07:29N 46°46' W 091°60'0 0.1
2017-Dec-31 06:59N 46°46' W 091°60'0 0.2
2017-Dec-31 06:29N 46°46' W 091°60'0 0.0
2017-Dec-31 05:59N 46°46' W 091°60'0 0.1
2017-Dec-31 05:23N 46°46' W 091°60'0 0.0
2017-Dec-31 04:53N 46°46' W 091°60'0 0.1
2017-Dec-31 04:23N 46°46' W 091°60'0 0.0
2017-Dec-31 03:53N 46°46' W 091°60'0 0.0
2017-Dec-31 03:29N 46°46' W 091°60'0 0.1
2017-Dec-31 02:59N 46°46' W 091°60'0 0.1
2017-Dec-31 02:23N 46°46' W 091°60'0 0.0
2017-Dec-31 01:53N 46°46' W 091°60'0 0.0
2017-Dec-31 01:26N 46°46' W 091°60'0 0.1
2017-Dec-31 00:56N 46°46' W 091°60'0 0.0
2017-Dec-31 00:29N 46°46' W 091°60'0 0.0
2017-Dec-30 23:59N 46°46' W 091°60'0 0.1
2017-Dec-30 23:26N 46°46' W 091°60'0 0.0
2017-Dec-30 22:56N 46°46' W 091°60'0 0.2
2017-Dec-30 22:29N 46°46' W 091°60'0 0.1
2017-Dec-30 21:56N 46°46' W 091°60'0 0.2
2017-Dec-30 21:29N 46°46' W 091°60'0 0.0
2017-Dec-30 20:59N 46°46' W 091°60'0 0.1
2017-Dec-30 20:29N 46°46' W 091°60'0 0.0
2017-Dec-30 19:47N 46°46' W 091°60'0 0.1
2017-Dec-30 19:29N 46°46' W 091°60'0 0.0
2017-Dec-30 18:59N 46°46' W 091°60'0 0.0
2017-Dec-30 18:29N 46°46' W 091°60'0 0.0
2017-Dec-30 17:59N 46°46' W 091°60'0 0.0
2017-Dec-30 17:29N 46°46' W 091°60'0 0.0
2017-Dec-30 16:59N 46°46' W 091°60'0 0.1
2017-Dec-30 16:29N 46°46' W 091°60'0 0.1
2017-Dec-30 15:59N 46°46' W 091°60'0 0.0
2017-Dec-30 15:29N 46°46' W 091°60'0 0.1
2017-Dec-30 14:59N 46°46' W 091°60'0 0.0
2017-Dec-30 14:29N 46°46' W 091°60'0 0.1
2017-Dec-30 13:59N 46°46' W 091°60'0 0.0
2017-Dec-30 13:29N 46°46' W 091°60'0 0.0
2017-Dec-30 12:50N 46°46' W 091°60'0 0.1
2017-Dec-30 12:29N 46°46' W 091°60'0 0.0
2017-Dec-30 11:53N 46°46' W 091°60'0 0.1
2017-Dec-30 11:29N 46°46' W 091°60'2 4.7
2017-Dec-30 11:00N 46°48' W 092°00'2244.6 300 / 131027.010.8
2017-Dec-30 10:59N 46°46' W 091°60'0 0.0
2017-Dec-30 10:29N 46°46' W 091°60'0 0.1
2017-Dec-30 09:59N 46°46' W 091°60'0 0.0
2017-Dec-30 09:26N 46°46' W 091°60'0 0.0
2017-Dec-30 08:59N 46°46' W 091°60'0 0.0
2017-Dec-30 08:29N 46°46' W 091°60'0 0.0
2017-Dec-30 07:59N 46°46' W 091°60'0 0.1
2017-Dec-30 07:30N 46°46' W 091°60'1 1.0
2017-Dec-30 07:00N 46°45' W 091°59'3 6.1
2017-Dec-30 06:30N 46°46' W 091°55'510.4
2017-Dec-30 06:00N 46°50' W 091°50'5 9.8
2017-Dec-30 05:30N 46°55' W 091°47'8511.2
2017-Dec-29 22:00N 47°30' W 089°54'16613.8 310 / 25507.110.8 -11.0
2017-Dec-29 10:00N 47°00' W 085°54'92 4.4 150 / 22 5.4 -9.0
2017-Dec-28 13:00N 46°06' W 084°06'0 0.0 060 / 11032.8 -30.5-30.5-11.1
2017-Dec-28 04:00N 46°06' W 084°06'14513.1 020 / 41029.4 -16.1-16.1-16.1
2017-Dec-27 17:00N 44°12' W 082°00'5618.5 300 / 181031.010.8 11.0
2017-Dec-27 14:00N 43°18' W 082°18'109 9.9 290 / 191029.4 2.2 -17.2-17.2 2.2
2017-Dec-27 03:00N 41°30' W 082°36'10710.7 280 / 281029.410.8 -11.1-11.1-1.1
2017-Dec-26 17:00N 42°30' W 080°36'25 2.3 270 / 301028.010.8 -13.0
2017-Dec-26 06:00N 42°42' W 080°06'   270 / 301021.010.8 -10.0
Track history (hours):
 
Tides and Currents Weather Stations Pressure Air Temp Water Temp Dewpoint Dewpoint Depression Visibility Wind Speed Wind Dir Waves Ship Positions

G3 Marquis

Last reported at 2018-Jan-04 21:00 UTC. Time now 2018-Feb-23 03:16 UTC.
Position N 48°30' W 089°06'.
Warning: this ship's position is 49 days out of date.

Length 226 m; draft 7.9 m.

Type: Cargo ship. MMSI: 316004370.

Wind from 310 at 11 knots

Air temperature -19.0 ° C
Visibility: greater than 10.8 NM

Date/timePositionNaut miles runAvg speedWind from/ knotsBaromVisibWave heightAir tempDewpointWater temp
2018-Jan-04 21:00N 48°30' W 089°06'132 7.3 310 / 11 10.8 -19.0
2018-Jan-04 03:00N 47°03' W 091°33'510.8
2018-Jan-04 02:30N 47°00' W 091°40'1 1.0
2018-Jan-04 02:00N 47°01' W 091°40'0 0.0
2018-Jan-04 01:30N 47°01' W 091°40'0 0.0
2018-Jan-03 13:32N 47°01' W 091°40'0 0.2
2018-Jan-03 13:30N 47°01' W 091°40'0 0.4
2018-Jan-03 13:01N 47°01' W 091°40'1 2.3
2018-Jan-03 12:31N 46°60' W 091°41'2 3.1
2018-Jan-03 12:00N 46°58' W 091°42'1 1.2
2018-Jan-03 11:31N 46°59' W 091°42'3 6.6
2018-Jan-03 11:01N 46°56' W 091°45'5 9.7
2018-Jan-03 10:30N 46°52' W 091°50'5 9.7
2018-Jan-03 10:00N 46°49' W 091°55'4 8.2
2018-Jan-03 09:31N 46°46' W 091°59'0 0.1
2018-Jan-03 08:58N 46°46' W 091°59'0 0.0
2018-Jan-03 08:28N 46°46' W 091°59'2 4.7
2018-Jan-03 08:00N 46°48' W 092°00'228.7 340 / 171017.010.8 -18.0
2018-Jan-03 07:55N 46°46' W 091°59'0 0.1
2018-Jan-03 07:28N 46°46' W 091°59'0 0.0
2018-Jan-03 06:52N 46°46' W 091°59'0 0.1
2018-Jan-03 06:25N 46°46' W 091°59'0 0.1
2018-Jan-03 05:58N 46°46' W 091°59'0 0.1
2018-Jan-03 05:28N 46°46' W 091°59'0 0.1
2018-Jan-03 04:58N 46°46' W 091°59'0 0.0
2018-Jan-03 04:28N 46°46' W 091°59'0 0.0
2018-Jan-03 03:58N 46°46' W 091°59'0 0.1
2018-Jan-03 03:28N 46°46' W 091°59'0 0.1
2018-Jan-03 02:58N 46°46' W 091°59'0 0.1
2018-Jan-03 02:28N 46°46' W 091°59'0 0.1
2018-Jan-03 01:58N 46°46' W 091°59'0 0.1
2018-Jan-03 01:28N 46°46' W 091°59'2 4.6
2018-Jan-03 01:00N 46°48' W 092°00'278.7 270 / 121011.0 5.4 -12.0
2018-Jan-03 00:58N 46°46' W 091°59'0 0.2
2018-Jan-03 00:28N 46°46' W 091°59'0 0.1
2018-Jan-02 23:58N 46°46' W 091°59'0 0.0
2018-Jan-02 23:28N 46°46' W 091°59'0 0.0
2018-Jan-02 22:52N 46°46' W 091°59'0 0.1
2018-Jan-02 22:22N 46°46' W 091°59'0 0.1
2018-Jan-02 21:58N 46°46' W 091°59'0 0.0
2018-Jan-02 21:28N 46°46' W 091°59'0 0.0
2018-Jan-02 20:52N 46°46' W 091°59'0 0.0
2018-Jan-02 20:22N 46°46' W 091°59'0 0.0
2018-Jan-02 19:55N 46°46' W 091°59'0 0.1
2018-Jan-02 19:28N 46°46' W 091°59'0 0.0
2018-Jan-02 18:55N 46°46' W 091°59'0 0.0
2018-Jan-02 18:28N 46°46' W 091°59'0 0.1
2018-Jan-02 17:58N 46°46' W 091°59'0 0.1
2018-Jan-02 17:28N 46°46' W 091°59'0 0.0
2018-Jan-02 16:58N 46°46' W 091°59'0 0.0
2018-Jan-02 16:28N 46°46' W 091°59'1 1.2
2018-Jan-02 16:00N 46°46' W 091°58'4 8.1
2018-Jan-02 15:31N 46°49' W 091°54'510.1
2018-Jan-02 15:01N 46°53' W 091°49'610.2
2018-Jan-02 14:27N 46°57' W 091°44'4 9.4
2018-Jan-02 14:00N 47°00' W 091°40'2 3.3
2018-Jan-02 13:30N 46°59' W 091°42'1 2.5
2018-Jan-02 12:59N 46°58' W 091°43'3 5.9
2018-Jan-02 12:29N 46°56' W 091°45'3 6.3
2018-Jan-02 12:01N 46°54' W 091°48'3 6.4
2018-Jan-02 11:31N 46°51' W 091°51'3 6.5
2018-Jan-02 11:00N 46°49' W 091°54'5636.2
2018-Jan-02 11:00N 46°54' W 091°54'816.2 240 / 301025.010.8 -16.0
2018-Jan-02 10:30N 46°47' W 091°58'2 2.5
2018-Jan-02 09:53N 46°46' W 091°60'0 0.0
2018-Jan-02 09:29N 46°46' W 091°60'0 0.0
2018-Jan-02 08:29N 46°46' W 091°60'0 0.0
2018-Jan-02 07:59N 46°46' W 091°60'0 0.0
2018-Jan-02 07:23N 46°46' W 091°60'0 0.0
2018-Jan-02 06:53N 46°46' W 091°60'0 0.0
2018-Jan-02 06:29N 46°46' W 091°60'0 0.0
2018-Jan-02 05:59N 46°46' W 091°60'0 0.0
2018-Jan-02 05:11N 46°46' W 091°60'0 0.0
2018-Jan-02 04:23N 46°46' W 091°60'0 0.0
2018-Jan-02 03:59N 46°46' W 091°60'0 0.0
2018-Jan-02 03:29N 46°46' W 091°60'0 0.0
2018-Jan-02 02:59N 46°46' W 091°60'0 0.0
2018-Jan-02 02:29N 46°46' W 091°60'0 0.1
2018-Jan-02 01:59N 46°46' W 091°60'0 0.0
2018-Jan-02 01:29N 46°46' W 091°60'0 0.0
2018-Jan-02 00:59N 46°46' W 091°60'0 0.0
2018-Jan-02 00:29N 46°46' W 091°60'0 0.0
2018-Jan-01 23:59N 46°46' W 091°60'0 0.0
2018-Jan-01 23:29N 46°46' W 091°60'0 0.1
2018-Jan-01 22:59N 46°46' W 091°60'0 0.1
2018-Jan-01 22:29N 46°46' W 091°60'0 0.0
2018-Jan-01 21:53N 46°46' W 091°60'0 0.1
2018-Jan-01 21:29N 46°46' W 091°60'2 4.6
2018-Jan-01 21:00N 46°48' W 092°00'220.0 250 / 141034.010.8 -15.0
2018-Jan-01 20:53N 46°46' W 091°60'0 0.1
2018-Jan-01 20:23N 46°46' W 091°60'0 0.0
2018-Jan-01 19:59N 46°46' W 091°60'0 0.1
2018-Jan-01 19:29N 46°46' W 091°60'0 0.1
2018-Jan-01 18:56N 46°46' W 091°60'0 0.1
2018-Jan-01 18:29N 46°46' W 091°60'0 0.0
2018-Jan-01 17:56N 46°46' W 091°60'0 0.1
2018-Jan-01 17:29N 46°46' W 091°60'0 0.0
2018-Jan-01 14:47N 46°46' W 091°60'0 0.1
2018-Jan-01 14:29N 46°46' W 091°60'0 0.0
2018-Jan-01 13:59N 46°46' W 091°60'0 0.0
2018-Jan-01 13:29N 46°46' W 091°60'0 0.1
2018-Jan-01 12:59N 46°46' W 091°60'0 0.0
2018-Jan-01 11:59N 46°46' W 091°60'0 0.0
2018-Jan-01 11:29N 46°46' W 091°60'0 0.0
2018-Jan-01 10:59N 46°46' W 091°60'0 0.0
2018-Jan-01 10:29N 46°46' W 091°60'0 0.0
2018-Jan-01 09:59N 46°46' W 091°60'0 0.1
2018-Jan-01 09:29N 46°46' W 091°60'2 4.7
2018-Jan-01 09:00N 46°48' W 092°00'2 4.5 320 / 121037.010.8 -24.0
2018-Jan-01 08:29N 46°46' W 091°60'0 0.1
2018-Jan-01 07:53N 46°46' W 091°60'0 0.0
2018-Jan-01 07:23N 46°46' W 091°60'0 0.1
2018-Jan-01 06:59N 46°46' W 091°60'0 0.0
2018-Jan-01 05:59N 46°46' W 091°60'0 0.0
2018-Jan-01 05:26N 46°46' W 091°60'0 0.0
2018-Jan-01 04:59N 46°46' W 091°60'0 0.0
2018-Jan-01 03:56N 46°46' W 091°60'0 0.1
2018-Jan-01 03:29N 46°46' W 091°60'0 0.1
2018-Jan-01 02:59N 46°46' W 091°60'0 0.0
2018-Jan-01 02:29N 46°46' W 091°60'0 0.0
2018-Jan-01 01:59N 46°46' W 091°60'0 0.0
2018-Jan-01 01:29N 46°46' W 091°60'0 0.0
2018-Jan-01 00:29N 46°46' W 091°60'2 1.5
2017-Dec-31 23:00N 46°48' W 092°00'2 1.1 270 / 15 10.8 -21.0
2017-Dec-31 20:59N 46°46' W 091°60'0 0.1
2017-Dec-31 20:29N 46°46' W 091°60'0 0.1
2017-Dec-31 19:50N 46°46' W 091°60'0 0.1
2017-Dec-31 19:29N 46°46' W 091°60'0 0.0
2017-Dec-31 18:59N 46°46' W 091°60'0 0.0
2017-Dec-31 18:29N 46°46' W 091°60'0 0.0
2017-Dec-31 17:53N 46°46' W 091°60'0 0.0
2017-Dec-31 17:08N 46°46' W 091°60'0 0.1
2017-Dec-31 16:53N 46°46' W 091°60'0 0.1
2017-Dec-31 16:29N 46°46' W 091°60'0 0.1
2017-Dec-31 15:53N 46°46' W 091°60'0 0.0
2017-Dec-31 15:20N 46°46' W 091°60'0 0.1
2017-Dec-31 14:59N 46°46' W 091°60'0 0.1
2017-Dec-31 14:29N 46°46' W 091°60'0 0.1
2017-Dec-31 13:56N 46°46' W 091°60'0 0.0
2017-Dec-31 13:29N 46°46' W 091°60'0 0.1
2017-Dec-31 12:59N 46°46' W 091°60'0 0.0
2017-Dec-31 12:26N 46°46' W 091°60'0 0.1
2017-Dec-31 11:56N 46°46' W 091°60'0 0.2
2017-Dec-31 11:29N 46°46' W 091°60'0 0.0
2017-Dec-31 10:59N 46°46' W 091°60'0 0.0
2017-Dec-31 10:26N 46°46' W 091°60'0 0.1
2017-Dec-31 09:59N 46°46' W 091°60'0 0.1
2017-Dec-31 09:29N 46°46' W 091°60'0 0.0
2017-Dec-31 08:59N 46°46' W 091°60'0 0.1
2017-Dec-31 08:29N 46°46' W 091°60'2 4.9
2017-Dec-31 08:00N 46°48' W 092°00'221.8 330 / 131035.010.8 -23.0
2017-Dec-31 07:53N 46°46' W 091°60'0 0.1
2017-Dec-31 07:29N 46°46' W 091°60'0 0.1
2017-Dec-31 06:59N 46°46' W 091°60'0 0.2
2017-Dec-31 06:29N 46°46' W 091°60'0 0.0
2017-Dec-31 05:59N 46°46' W 091°60'0 0.1
2017-Dec-31 05:23N 46°46' W 091°60'0 0.0
2017-Dec-31 04:53N 46°46' W 091°60'0 0.1
2017-Dec-31 04:23N 46°46' W 091°60'0 0.0
2017-Dec-31 03:53N 46°46' W 091°60'0 0.0
2017-Dec-31 03:29N 46°46' W 091°60'0 0.1
2017-Dec-31 02:59N 46°46' W 091°60'0 0.1
2017-Dec-31 02:23N 46°46' W 091°60'0 0.0
2017-Dec-31 01:53N 46°46' W 091°60'0 0.0
2017-Dec-31 01:26N 46°46' W 091°60'0 0.1
2017-Dec-31 00:56N 46°46' W 091°60'0 0.0
2017-Dec-31 00:29N 46°46' W 091°60'0 0.0
2017-Dec-30 23:59N 46°46' W 091°60'0 0.1
2017-Dec-30 23:26N 46°46' W 091°60'0 0.0
2017-Dec-30 22:56N 46°46' W 091°60'0 0.2
2017-Dec-30 22:29N 46°46' W 091°60'0 0.1
2017-Dec-30 21:56N 46°46' W 091°60'0 0.2
2017-Dec-30 21:29N 46°46' W 091°60'0 0.0
2017-Dec-30 20:59N 46°46' W 091°60'0 0.1
2017-Dec-30 20:29N 46°46' W 091°60'0 0.0
2017-Dec-30 19:47N 46°46' W 091°60'0 0.1
2017-Dec-30 19:29N 46°46' W 091°60'0 0.0
2017-Dec-30 18:59N 46°46' W 091°60'0 0.0
2017-Dec-30 18:29N 46°46' W 091°60'0 0.0
2017-Dec-30 17:59N 46°46' W 091°60'0 0.0
2017-Dec-30 17:29N 46°46' W 091°60'0 0.0
2017-Dec-30 16:59N 46°46' W 091°60'0 0.1
2017-Dec-30 16:29N 46°46' W 091°60'0 0.1
2017-Dec-30 15:59N 46°46' W 091°60'0 0.0
2017-Dec-30 15:29N 46°46' W 091°60'0 0.1
2017-Dec-30 14:59N 46°46' W 091°60'0 0.0
2017-Dec-30 14:29N 46°46' W 091°60'0 0.1
2017-Dec-30 13:59N 46°46' W 091°60'0 0.0
2017-Dec-30 13:29N 46°46' W 091°60'0 0.0
2017-Dec-30 12:50N 46°46' W 091°60'0 0.1
2017-Dec-30 12:29N 46°46' W 091°60'0 0.0
2017-Dec-30 11:53N 46°46' W 091°60'0 0.1
2017-Dec-30 11:29N 46°46' W 091°60'2 4.7
2017-Dec-30 11:00N 46°48' W 092°00'2244.6 300 / 131027.010.8
2017-Dec-30 10:59N 46°46' W 091°60'0 0.0
2017-Dec-30 10:29N 46°46' W 091°60'0 0.1
2017-Dec-30 09:59N 46°46' W 091°60'0 0.0
2017-Dec-30 09:26N 46°46' W 091°60'0 0.0
2017-Dec-30 08:59N 46°46' W 091°60'0 0.0
2017-Dec-30 08:29N 46°46' W 091°60'0 0.0
2017-Dec-30 07:59N 46°46' W 091°60'0 0.1
2017-Dec-30 07:30N 46°46' W 091°60'1 1.0
2017-Dec-30 07:00N 46°45' W 091°59'3 6.1
2017-Dec-30 06:30N 46°46' W 091°55'510.4
2017-Dec-30 06:00N 46°50' W 091°50'5 9.8
2017-Dec-30 05:30N 46°55' W 091°47'8511.2
2017-Dec-29 22:00N 47°30' W 089°54'16613.8 310 / 25507.110.8 -11.0
2017-Dec-29 10:00N 47°00' W 085°54'92 4.4 150 / 22 5.4 -9.0
2017-Dec-28 13:00N 46°06' W 084°06'0 0.0 060 / 11032.8 -30.5-30.5-11.1
2017-Dec-28 04:00N 46°06' W 084°06'14513.1 020 / 41029.4 -16.1-16.1-16.1
2017-Dec-27 17:00N 44°12' W 082°00'5618.5 300 / 181031.010.8 11.0
2017-Dec-27 14:00N 43°18' W 082°18'109 9.9 290 / 191029.4 2.2 -17.2-17.2 2.2
2017-Dec-27 03:00N 41°30' W 082°36'10710.7 280 / 281029.410.8 -11.1-11.1-1.1
2017-Dec-26 17:00N 42°30' W 080°36'25 2.3 270 / 301028.010.8 -13.0
2017-Dec-26 06:00N 42°42' W 080°06'   270 / 301021.010.8 -10.0

Dump ship's entire track history